Time;durP1;ratioP1;P1;durP2;ratioP2;P2;SDS_P1;SDS_P2;PMS_P1;PMS_P2;Temp;Humidity;BMP_temperature;BMP_pressure;BME280_temperature;BME280_humidity;BME280_pressure;Samples;Min_cycle;Max_cycle;Signal;HPM_P1;HPM_P2
2021/08/08 00:00:16;;;;;;;2.67;2.05;;;;;;;16.64;84.99;99658.72;5010708;28;20049;-84
2021/08/08 00:02:43;;;;;;;3.65;0.70;;;;;;;16.61;84.98;99653.56;5014027;28;21303;-85
2021/08/08 00:05:19;;;;;;;3.70;0.90;;;;;;;16.55;85.03;99662.66;5009592;28;20082;-86
2021/08/08 00:07:48;;;;;;;1.33;1.23;;;;;;;16.52;85.54;99666.31;5010691;28;20515;-86
2021/08/08 00:10:16;;;;;;;1.38;1.00;;;;;;;16.51;85.30;99677.81;5025081;28;20052;-84
2021/08/08 00:12:48;;;;;;;1.45;0.82;;;;;;;16.57;84.55;99676.66;5027321;28;20139;-84
2021/08/08 00:15:17;;;;;;;3.53;1.58;;;;;;;16.65;82.50;99677.13;5009882;28;20415;-86
2021/08/08 00:17:44;;;;;;;3.03;1.00;;;;;;;16.68;82.46;99679.59;5029990;28;20086;-86
2021/08/08 00:20:13;;;;;;;0.60;0.60;;;;;;;16.68;82.15;99684.06;5007092;28;20065;-84
2021/08/08 00:22:43;;;;;;;2.55;0.80;;;;;;;16.67;82.43;99687.63;5007154;28;20085;-87
2021/08/08 00:25:15;;;;;;;2.53;1.00;;;;;;;16.62;82.43;99692.28;5011655;28;20575;-85
2021/08/08 00:27:45;;;;;;;2.30;0.93;;;;;;;16.58;82.33;99690.72;5011149;28;20068;-84
2021/08/08 00:30:12;;;;;;;1.52;1.42;;;;;;;16.56;81.27;99695.22;5010035;28;20049;-84
2021/08/08 00:32:41;;;;;;;0.47;0.47;;;;;;;16.57;80.17;99696.94;5011384;28;20045;-85
2021/08/08 00:35:10;;;;;;;1.35;0.85;;;;;;;16.59;79.23;99690.63;5030146;28;20053;-84
2021/08/08 00:37:37;;;;;;;1.55;0.52;;;;;;;16.55;79.24;99691.72;5024268;28;20915;-85
2021/08/08 00:40:09;;;;;;;1.38;0.95;;;;;;;16.49;79.16;99698.19;5008161;28;20533;-85
2021/08/08 00:42:36;;;;;;;0.75;0.75;;;;;;;16.47;79.38;99696.53;5019683;28;20044;-84
2021/08/08 00:45:03;;;;;;;1.15;0.65;;;;;;;16.41;79.78;99702.97;5005704;28;20052;-86
2021/08/08 00:47:29;;;;;;;1.73;0.70;;;;;;;16.41;79.57;99702.13;5007432;28;20054;-84
2021/08/08 00:49:56;;;;;;;2.03;0.60;;;;;;;16.46;78.79;99705.38;5034402;28;20521;-85
2021/08/08 00:52:28;;;;;;;1.10;0.60;;;;;;;16.46;78.15;99698.31;5025978;28;20164;-84
2021/08/08 00:54:57;;;;;;;2.30;1.45;;;;;;;16.45;77.91;99701.91;5008734;28;22338;-84
2021/08/08 00:57:24;;;;;;;1.95;0.82;;;;;;;16.41;77.91;99715.31;5029307;28;20052;-84
2021/08/08 00:59:51;;;;;;;0.25;0.25;;;;;;;16.36;78.13;99712.88;5011171;28;20044;-84
2021/08/08 01:02:20;;;;;;;0.95;0.70;;;;;;;16.29;78.57;99712.34;5018759;28;20045;-83
2021/08/08 01:05:07;;;;;;;0.52;0.38;;;;;;;16.17;79.17;99711.13;4996417;28;20152;-84
2021/08/08 01:07:45;;;;;;;0.77;0.60;;;;;;;16.12;80.03;99715.78;5008130;28;20152;-83
2021/08/08 01:10:12;;;;;;;1.65;0.70;;;;;;;16.11;79.96;99715.84;5038482;28;20119;-83
2021/08/08 01:12:41;;;;;;;0.55;0.55;;;;;;;16.11;79.80;99723.78;5017528;28;20121;-82
2021/08/08 01:15:10;;;;;;;1.33;0.63;;;;;;;16.11;80.29;99724.63;5036190;28;20358;-84
2021/08/08 01:17:52;;;;;;;1.38;0.52;;;;;;;16.13;79.84;99732.50;5051655;28;20037;-87
2021/08/08 01:20:20;;;;;;;0.70;0.70;;;;;;;16.14;79.52;99734.19;5053750;28;20044;-86
2021/08/08 01:22:52;;;;;;;0.80;0.45;;;;;;;16.11;79.75;99735.19;5034151;28;20048;-86
2021/08/08 01:25:22;;;;;;;0.55;0.55;;;;;;;16.06;79.92;99739.84;5058694;28;20104;-83
2021/08/08 01:27:53;;;;;;;3.22;0.68;;;;;;;15.98;80.54;99740.19;5049938;28;20972;-84
2021/08/08 01:30:20;;;;;;;0.65;0.50;;;;;;;15.91;80.56;99735.25;5019839;28;20059;-86
2021/08/08 01:32:49;;;;;;;1.45;0.65;;;;;;;15.83;80.41;99738.25;5025519;28;20053;-86
2021/08/08 01:35:16;;;;;;;2.55;0.40;;;;;;;15.75;80.54;99740.31;5050448;28;20044;-85
2021/08/08 01:37:45;;;;;;;1.65;0.47;;;;;;;15.69;81.00;99738.84;5011832;28;20071;-86
2021/08/08 01:40:27;;;;;;;1.02;0.30;;;;;;;15.62;81.11;99735.63;5031492;28;20057;-84
2021/08/08 01:42:56;;;;;;;0.60;0.60;;;;;;;15.57;81.37;99734.13;5030862;28;20112;-83
2021/08/08 01:45:24;;;;;;;0.88;0.52;;;;;;;15.51;81.66;99744.00;5032591;28;20104;-85
2021/08/08 01:47:59;;;;;;;1.30;0.90;;;;;;;15.47;81.26;99742.41;5028474;28;20044;-86
2021/08/08 01:50:31;;;;;;;1.80;0.57;;;;;;;15.45;81.32;99746.91;5023316;28;20567;-86
2021/08/08 01:53:01;;;;;;;2.78;0.65;;;;;;;15.52;79.57;99743.06;5013828;28;20548;-85
2021/08/08 01:55:32;;;;;;;1.17;0.30;;;;;;;15.55;79.16;99750.00;5021981;28;20122;-86
2021/08/08 01:57:59;;;;;;;2.08;0.30;;;;;;;15.63;78.46;99744.38;5015620;28;20161;-86
2021/08/08 02:00:26;;;;;;;2.85;0.30;;;;;;;15.68;78.27;99748.53;5022014;28;21847;-85
2021/08/08 02:02:57;;;;;;;0.68;0.43;;;;;;;15.70;77.99;99737.91;5025535;28;20119;-86
2021/08/08 02:05:32;;;;;;;0.85;0.40;;;;;;;15.72;77.27;99736.03;5015285;28;20068;-86
2021/08/08 02:08:00;;;;;;;1.02;0.50;;;;;;;15.75;76.84;99742.97;5010897;28;20055;-84
2021/08/08 02:10:27;;;;;;;0.52;0.30;;;;;;;15.71;77.06;99737.00;5008176;28;20057;-86
2021/08/08 02:12:54;;;;;;;0.35;0.35;;;;;;;15.74;76.60;99741.28;5004861;28;20045;-86
2021/08/08 02:15:21;;;;;;;0.28;0.22;;;;;;;15.76;76.50;99748.19;5023684;28;20059;-84
2021/08/08 02:17:49;;;;;;;1.60;0.28;;;;;;;15.75;76.51;99745.59;5035601;28;20775;-84
2021/08/08 02:20:17;;;;;;;1.05;0.25;;;;;;;15.80;75.82;99739.22;5025621;28;20130;-84
2021/08/08 02:22:48;;;;;;;0.85;0.30;;;;;;;15.89;75.40;99737.94;4997269;28;22484;-87
2021/08/08 02:25:15;;;;;;;0.68;0.40;;;;;;;15.97;75.44;99750.78;5021267;28;20128;-85
2021/08/08 02:27:42;;;;;;;2.00;1.05;;;;;;;16.04;75.10;99762.81;5027140;28;20049;-84
2021/08/08 02:30:11;;;;;;;0.75;0.20;;;;;;;16.09;74.95;99758.16;5017197;28;20045;-84
2021/08/08 02:32:39;;;;;;;0.45;0.20;;;;;;;16.14;74.49;99760.56;5007426;28;20055;-85
2021/08/08 02:35:07;;;;;;;0.30;0.20;;;;;;;16.17;74.55;99757.81;5021674;28;20487;-86
2021/08/08 02:37:33;;;;;;;1.95;0.90;;;;;;;16.18;74.16;99759.53;5020564;28;20107;-85
2021/08/08 02:40:00;;;;;;;0.52;0.30;;;;;;;16.18;74.08;99767.47;5000300;28;20149;-85
2021/08/08 02:42:29;;;;;;;0.40;0.20;;;;;;;16.17;74.24;99776.28;5032989;28;20972;-86
2021/08/08 02:44:56;;;;;;;1.73;0.32;;;;;;;16.16;74.48;99769.28;5019359;28;20056;-85
2021/08/08 02:47:26;;;;;;;0.38;0.38;;;;;;;16.16;74.37;99777.22;5021619;28;20081;-86
2021/08/08 02:49:53;;;;;;;0.60;0.60;;;;;;;16.11;74.53;99782.69;5017529;28;21151;-86
2021/08/08 02:52:20;;;;;;;0.73;0.20;;;;;;;16.04;74.63;99774.22;5010840;28;20155;-85
2021/08/08 02:54:47;;;;;;;0.68;0.50;;;;;;;16.00;74.99;99769.16;5019212;28;20122;-85
2021/08/08 02:57:14;;;;;;;1.00;0.40;;;;;;;15.95;74.46;99771.16;5019434;28;20207;-85
2021/08/08 02:59:40;;;;;;;0.80;0.30;;;;;;;15.86;75.13;99769.78;5029775;28;20033;-84
2021/08/08 03:02:07;;;;;;;0.30;0.30;;;;;;;15.79;75.41;99776.22;5004835;28;20310;-85
2021/08/08 03:04:38;;;;;;;2.28;0.35;;;;;;;15.69;75.84;99781.88;5006586;28;20052;-87
2021/08/08 03:07:07;;;;;;;0.80;0.45;;;;;;;15.63;76.58;99786.59;5022913;28;20066;-85
2021/08/08 03:09:34;;;;;;;1.23;0.20;;;;;;;15.60;76.70;99790.22;5002897;28;20077;-85
2021/08/08 03:12:01;;;;;;;3.30;0.35;;;;;;;15.59;76.74;99793.81;5020680;28;20057;-85
2021/08/08 03:14:27;;;;;;;2.05;0.43;;;;;;;15.60;76.64;99799.91;5043896;28;20041;-85
2021/08/08 03:16:54;;;;;;;0.52;0.40;;;;;;;15.65;76.54;99796.16;5025403;28;20045;-85
2021/08/08 03:19:22;;;;;;;2.55;0.43;;;;;;;15.69;76.40;99802.16;5035752;28;20056;-84
2021/08/08 03:21:49;;;;;;;2.03;0.28;;;;;;;15.74;76.29;99804.59;5018604;28;20041;-86
2021/08/08 03:24:16;;;;;;;1.10;0.30;;;;;;;15.78;76.24;99804.38;5005954;28;20132;-85
2021/08/08 03:26:42;;;;;;;1.85;0.50;;;;;;;15.81;75.82;99801.66;5008821;28;20049;-83
2021/08/08 03:29:12;;;;;;;0.40;0.20;;;;;;;15.84;75.85;99806.78;5012536;28;20055;-83
2021/08/08 03:31:39;;;;;;;0.32;0.25;;;;;;;15.88;75.69;99799.59;5020250;28;20051;-85
2021/08/08 03:34:06;;;;;;;0.30;0.30;;;;;;;15.90;75.52;99800.38;5038409;28;20167;-84
2021/08/08 03:36:32;;;;;;;0.43;0.40;;;;;;;15.93;75.20;99812.56;5022946;28;20049;-85
2021/08/08 03:38:59;;;;;;;0.73;0.30;;;;;;;15.96;75.31;99809.81;5020345;28;20054;-81
2021/08/08 03:41:26;;;;;;;2.60;0.32;;;;;;;15.99;75.12;99809.66;5017335;28;20051;-83
2021/08/08 03:43:52;;;;;;;0.55;0.28;;;;;;;15.99;74.98;99807.03;5026327;28;20057;-81
2021/08/08 03:46:19;;;;;;;1.70;0.28;;;;;;;15.97;75.14;99815.03;5021744;28;20504;-83
2021/08/08 03:48:46;;;;;;;0.55;0.40;;;;;;;15.99;75.26;99818.44;5004710;28;21680;-84
2021/08/08 03:51:13;;;;;;;0.75;0.20;;;;;;;15.99;75.37;99814.94;5007419;28;20475;-84
2021/08/08 03:53:39;;;;;;;1.38;0.40;;;;;;;16.01;75.24;99815.75;5022957;28;20135;-81
2021/08/08 03:56:06;;;;;;;1.65;0.40;;;;;;;16.04;75.40;99829.66;5023387;28;20041;-84
2021/08/08 03:58:33;;;;;;;0.60;0.40;;;;;;;16.04;75.18;99824.38;5014590;28;20045;-85
2021/08/08 04:01:01;;;;;;;2.00;0.57;;;;;;;16.02;75.44;99828.00;5005444;28;20061;-85
2021/08/08 04:03:30;;;;;;;2.30;0.20;;;;;;;15.99;75.45;99829.00;5021266;28;20049;-87
2021/08/08 04:06:01;;;;;;;0.35;0.32;;;;;;;15.97;75.69;99832.63;5024270;28;20361;-83
2021/08/08 04:08:28;;;;;;;1.17;0.20;;;;;;;15.97;75.62;99835.25;5023071;28;20053;-85
2021/08/08 04:10:55;;;;;;;0.35;0.35;;;;;;;15.96;75.88;99838.84;5019480;28;20057;-83
2021/08/08 04:13:21;;;;;;;0.90;0.32;;;;;;;15.96;75.89;99839.69;5019937;28;20143;-84
2021/08/08 04:15:48;;;;;;;0.20;0.20;;;;;;;15.99;75.84;99844.81;5016837;28;20053;-85
2021/08/08 04:18:15;;;;;;;1.40;0.20;;;;;;;16.01;75.96;99847.44;5023175;28;20375;-83
2021/08/08 04:20:42;;;;;;;0.28;0.20;;;;;;;15.97;76.30;99843.19;5025289;28;20408;-84
2021/08/08 04:23:10;;;;;;;0.60;0.13;;;;;;;15.95;76.37;99842.41;5021984;28;20047;-82
2021/08/08 04:25:39;;;;;;;0.47;0.35;;;;;;;15.95;76.38;99848.53;5043945;28;20072;-83
2021/08/08 04:28:07;;;;;;;0.47;0.40;;;;;;;15.96;76.57;99839.69;5018216;28;20056;-81
2021/08/08 04:30:37;;;;;;;1.58;0.20;;;;;;;15.96;76.64;99847.63;5024785;28;20508;-83
2021/08/08 04:33:05;;;;;;;1.13;0.20;;;;;;;16.01;76.49;99850.06;5009909;28;20052;-85
2021/08/08 04:35:34;;;;;;;0.20;0.20;;;;;;;16.02;76.47;99857.03;5026408;28;20056;-85
2021/08/08 04:38:02;;;;;;;1.17;0.30;;;;;;;16.00;76.72;99851.84;4995291;28;20041;-83
2021/08/08 04:40:28;;;;;;;0.45;0.25;;;;;;;16.03;76.58;99851.72;4998928;28;20056;-84
2021/08/08 04:42:55;;;;;;;0.25;0.20;;;;;;;16.06;77.12;99858.63;5026302;28;20045;-84
2021/08/08 04:45:23;;;;;;;0.65;0.50;;;;;;;16.08;76.73;99856.78;5007688;28;20053;-85
2021/08/08 04:47:51;;;;;;;0.98;0.38;;;;;;;16.12;76.32;99858.34;5013648;28;20155;-84
2021/08/08 04:50:18;;;;;;;1.20;0.47;;;;;;;16.18;75.88;99854.59;5008229;28;20198;-85
2021/08/08 04:52:46;;;;;;;2.47;0.20;;;;;;;16.22;75.73;99858.81;5016664;28;20068;-83
2021/08/08 04:55:14;;;;;;;0.55;0.32;;;;;;;16.28;75.60;99862.94;5026927;28;20052;-84
2021/08/08 04:57:41;;;;;;;1.88;1.00;;;;;;;16.31;75.37;99855.75;5005243;28;20385;-84
2021/08/08 05:00:11;;;;;;;0.60;0.32;;;;;;;16.35;75.22;99872.31;5039218;28;20137;-83
2021/08/08 05:02:38;;;;;;;0.47;0.47;;;;;;;16.38;75.12;99865.06;5020513;28;20064;-84
2021/08/08 05:05:10;;;;;;;1.98;0.60;;;;;;;16.44;74.76;99863.97;5027629;28;20040;-85
2021/08/08 05:07:39;;;;;;;0.52;0.52;;;;;;;16.47;74.54;99873.53;5031089;28;20037;-85
2021/08/08 05:10:11;;;;;;;0.80;0.30;;;;;;;16.47;74.63;99860.31;5037446;28;20072;-85
2021/08/08 05:12:39;;;;;;;0.70;0.38;;;;;;;16.48;74.69;99868.16;5032025;28;20171;-85
2021/08/08 05:15:08;;;;;;;0.68;0.68;;;;;;;16.49;74.55;99869.91;5007434;28;20045;-84
2021/08/08 05:17:35;;;;;;;1.10;0.70;;;;;;;16.50;74.39;99874.25;5027438;28;20500;-83
2021/08/08 05:20:02;;;;;;;2.08;0.55;;;;;;;16.52;74.39;99872.38;5045625;28;20351;-84
2021/08/08 05:22:29;;;;;;;2.60;0.80;;;;;;;16.55;74.38;99874.03;5023457;28;20040;-83
2021/08/08 05:24:55;;;;;;;2.53;0.60;;;;;;;16.57;74.12;99871.31;5028418;28;20071;-84
2021/08/08 05:27:22;;;;;;;2.25;0.50;;;;;;;16.58;74.11;99868.59;5025494;28;20081;-84
2021/08/08 05:29:49;;;;;;;1.88;0.57;;;;;;;16.62;74.11;99869.31;5026751;28;20518;-85
2021/08/08 05:32:16;;;;;;;2.63;0.80;;;;;;;16.61;74.29;99868.47;5017088;28;20049;-84
2021/08/08 05:34:42;;;;;;;2.35;1.40;;;;;;;16.65;74.09;99880.59;5029387;28;20053;-83
2021/08/08 05:37:09;;;;;;;0.68;0.55;;;;;;;16.68;73.71;99872.53;5027938;28;20765;-83
2021/08/08 05:39:36;;;;;;;2.10;0.60;;;;;;;16.73;73.98;99884.69;5004671;28;20063;-83
2021/08/08 05:42:03;;;;;;;1.20;0.70;;;;;;;16.77;73.91;99881.81;5011199;28;20053;-83
2021/08/08 05:44:29;;;;;;;1.75;0.70;;;;;;;16.78;73.84;99888.81;5022161;28;20491;-85
2021/08/08 05:46:56;;;;;;;0.95;0.95;;;;;;;16.82;73.84;99892.19;5011040;28;20053;-84
2021/08/08 05:49:23;;;;;;;1.38;0.80;;;;;;;16.82;73.56;99887.75;5025114;28;20044;-84
2021/08/08 05:51:50;;;;;;;0.90;0.75;;;;;;;16.85;73.22;99879.66;5004234;28;20045;-83
2021/08/08 05:54:17;;;;;;;2.53;0.73;;;;;;;16.89;73.32;99888.28;5011622;28;20422;-83
2021/08/08 05:56:45;;;;;;;1.83;0.52;;;;;;;16.96;73.17;99894.19;5005024;28;20049;-84
2021/08/08 05:59:11;;;;;;;0.50;0.50;;;;;;;17.00;73.15;99904.53;5024957;28;20427;-84
2021/08/08 06:01:38;;;;;;;2.20;0.88;;;;;;;17.09;72.88;99899.75;5017951;28;22683;-85
2021/08/08 06:04:07;;;;;;;4.90;0.55;;;;;;;17.22;72.29;99902.66;5014473;28;20048;-85
2021/08/08 06:06:34;;;;;;;2.38;0.68;;;;;;;17.30;72.11;99911.06;5011088;28;21117;-85
2021/08/08 06:09:01;;;;;;;1.88;0.73;;;;;;;17.32;71.52;99903.91;5018460;28;20088;-84
2021/08/08 06:11:27;;;;;;;3.22;0.70;;;;;;;17.30;71.86;99911.06;5021405;28;20061;-86
2021/08/08 06:13:54;;;;;;;1.27;0.60;;;;;;;17.27;71.73;99909.41;5019941;28;20076;-84
2021/08/08 06:16:20;;;;;;;8.73;1.27;;;;;;;17.26;71.64;99917.44;5025335;28;20118;-86
2021/08/08 06:18:47;;;;;;;1.83;0.98;;;;;;;17.24;71.37;99928.09;5021731;28;20132;-83
2021/08/08 06:21:14;;;;;;;0.70;0.52;;;;;;;17.23;71.88;99925.53;5018746;28;20048;-83
2021/08/08 06:23:41;;;;;;;1.38;1.27;;;;;;;17.24;71.45;99922.81;5026826;28;20052;-83
2021/08/08 06:26:07;;;;;;;3.42;1.02;;;;;;;17.24;70.72;99920.16;5019464;28;20041;-82
2021/08/08 06:28:36;;;;;;;1.73;1.00;;;;;;;17.29;70.26;99930.53;5026836;28;20048;-85
2021/08/08 06:31:03;;;;;;;1.55;1.15;;;;;;;17.37;69.99;99938.94;5004427;28;20056;-86
2021/08/08 06:33:30;;;;;;;2.92;1.17;;;;;;;17.42;69.64;99944.88;5024960;28;20102;-86
2021/08/08 06:35:57;;;;;;;3.20;0.98;;;;;;;17.44;69.06;99942.13;5027401;28;20057;-85
2021/08/08 06:38:24;;;;;;;3.05;1.13;;;;;;;17.51;67.99;99951.50;5001337;28;20582;-86
2021/08/08 06:40:50;;;;;;;5.57;1.55;;;;;;;17.59;67.99;99949.31;5025007;28;20048;-85
2021/08/08 06:43:17;;;;;;;2.22;1.02;;;;;;;17.70;67.28;99946.13;5014968;28;20032;-84
2021/08/08 06:45:44;;;;;;;4.22;1.40;;;;;;;17.82;66.85;99957.91;5025257;28;20056;-82
2021/08/08 06:48:13;;;;;;;1.85;0.95;;;;;;;17.94;66.10;99957.31;5037271;28;20049;-85
2021/08/08 06:50:40;;;;;;;0.88;0.88;;;;;;;18.05;65.65;99961.22;5026115;28;20118;-84
2021/08/08 06:53:06;;;;;;;2.85;0.93;;;;;;;18.19;65.03;99966.66;4993247;28;20510;-82
2021/08/08 06:55:33;;;;;;;3.95;1.45;;;;;;;18.31;64.59;99962.53;5021673;28;20140;-82
2021/08/08 06:58:00;;;;;;;4.13;1.25;;;;;;;18.48;63.33;99966.94;5010922;28;20041;-84
2021/08/08 07:00:31;;;;;;;4.30;1.15;;;;;;;18.62;62.48;99963.56;5010186;28;20123;-85
2021/08/08 07:02:59;;;;;;;2.33;1.40;;;;;;;18.84;61.86;99965.91;5003388;28;20147;-85
2021/08/08 07:05:26;;;;;;;1.05;0.70;;;;;;;18.95;60.94;99976.78;5026192;28;20052;-86
2021/08/08 07:07:53;;;;;;;2.40;1.30;;;;;;;19.00;60.17;99980.03;5012099;28;20077;-83
2021/08/08 07:10:22;;;;;;;2.15;0.95;;;;;;;18.89;60.38;99981.53;5026617;28;20152;-84
2021/08/08 07:12:49;;;;;;;2.42;0.95;;;;;;;18.84;60.89;99985.31;4999874;28;20071;-85
2021/08/08 07:15:16;;;;;;;2.20;0.80;;;;;;;18.85;60.51;99983.50;5012637;28;20484;-85
2021/08/08 07:17:46;;;;;;;2.83;0.73;;;;;;;18.81;60.40;99984.59;5012572;28;21986;-83
2021/08/08 07:20:13;;;;;;;4.07;1.25;;;;;;;18.72;60.53;99978.03;5020109;28;20048;-84
2021/08/08 07:22:42;;;;;;;2.75;1.10;;;;;;;18.81;60.51;99981.97;5027836;28;20053;-84
2021/08/08 07:25:10;;;;;;;5.68;1.77;;;;;;;18.90;60.28;99986.78;5016949;28;20041;-83
2021/08/08 07:27:38;;;;;;;2.47;1.20;;;;;;;18.99;59.40;99999.56;4997433;28;20056;-87
2021/08/08 07:30:07;;;;;;;2.55;1.23;;;;;;;19.06;58.79;100009.81;5018666;28;20055;-84
2021/08/08 07:32:36;;;;;;;1.10;1.08;;;;;;;19.05;58.60;99976.31;4989131;28;20053;-84
2021/08/08 07:35:08;;;;;;;4.72;1.10;;;;;;;19.05;58.25;100005.50;5025806;28;20045;-82
2021/08/08 07:37:35;;;;;;;2.35;1.25;;;;;;;19.01;58.90;100010.09;5023028;28;20512;-86
2021/08/08 07:40:02;;;;;;;1.88;1.15;;;;;;;19.06;58.38;100008.06;5011846;28;20068;-84
2021/08/08 07:42:33;;;;;;;3.63;1.10;;;;;;;19.03;58.60;100015.31;5021828;28;20148;-85
2021/08/08 07:45:02;;;;;;;4.88;1.27;;;;;;;19.06;58.29;100021.31;5008526;28;20513;-85
2021/08/08 07:47:28;;;;;;;6.90;1.27;;;;;;;18.93;57.96;99996.38;5006631;28;20737;-84
2021/08/08 07:50:02;;;;;;;3.30;1.42;;;;;;;18.85;58.68;100028.56;5019682;28;20072;-84
2021/08/08 07:52:29;;;;;;;1.27;0.93;;;;;;;18.94;58.48;100043.19;5025549;28;20048;-85
2021/08/08 07:54:58;;;;;;;4.22;1.55;;;;;;;19.08;58.18;100037.13;5007082;28;20052;-83
2021/08/08 07:57:27;;;;;;;5.13;1.83;;;;;;;19.21;57.19;100053.25;5015913;28;20052;-86
2021/08/08 08:00:02;;;;;;;1.88;1.27;;;;;;;19.10;57.16;100060.00;5022915;28;20053;-87
2021/08/08 08:02:29;;;;;;;2.75;1.20;;;;;;;19.14;57.28;100066.84;5006756;28;20419;-85
2021/08/08 08:04:55;;;;;;;5.20;2.20;;;;;;;19.08;57.17;100067.16;5012166;28;20163;-88
2021/08/08 08:07:25;;;;;;;3.95;1.50;;;;;;;19.03;57.69;100078.97;5026288;28;20041;-84
2021/08/08 08:10:00;;;;;;;4.55;1.27;;;;;;;18.96;57.55;100074.00;5024456;28;20137;-86
2021/08/08 08:12:27;;;;;;;1.83;1.20;;;;;;;18.85;57.26;100073.66;5036188;28;20157;-86
2021/08/08 08:14:54;;;;;;;2.33;1.60;;;;;;;18.64;57.41;100073.00;5015039;28;20789;-86
2021/08/08 08:17:21;;;;;;;4.80;1.30;;;;;;;18.56;57.62;100054.84;4992866;28;20495;-88
2021/08/08 08:19:53;;;;;;;2.78;1.35;;;;;;;18.52;58.43;100091.28;5029867;28;20372;-85
2021/08/08 08:22:20;;;;;;;4.00;1.52;;;;;;;18.55;58.00;100102.63;5032011;28;20049;-86
2021/08/08 08:24:48;;;;;;;2.03;1.90;;;;;;;18.57;58.48;100098.13;5010532;28;20057;-85
2021/08/08 08:27:21;;;;;;;5.57;1.95;;;;;;;18.69;58.00;100102.78;5047885;28;20080;-88
2021/08/08 08:29:48;;;;;;;1.63;1.50;;;;;;;18.74;57.51;100113.16;5023604;28;20579;-86
2021/08/08 08:32:15;;;;;;;3.65;1.85;;;;;;;18.83;57.47;100104.72;5012965;28;20117;-85
2021/08/08 08:34:41;;;;;;;2.50;2.30;;;;;;;18.96;56.41;100100.50;5013016;28;20045;-84
2021/08/08 08:37:08;;;;;;;3.72;2.13;;;;;;;19.07;56.36;100096.44;5025041;28;20110;-83
2021/08/08 08:39:37;;;;;;;2.22;1.60;;;;;;;19.28;56.05;100105.91;5029280;28;20044;-85
2021/08/08 08:42:08;;;;;;;5.80;1.67;;;;;;;19.60;55.30;100105.09;5000359;28;20056;-85
2021/08/08 08:44:39;;;;;;;2.75;1.15;;;;;;;19.81;54.83;100103.03;5006937;28;20051;-86
2021/08/08 08:47:15;;;;;;;2.05;1.20;;;;;;;19.78;53.84;100104.03;5010686;28;20045;-84
2021/08/08 08:50:14;;;;;;;3.83;1.33;;;;;;;19.72;54.44;100115.00;5028356;28;20048;-85
2021/08/08 08:52:42;;;;;;;3.92;1.52;;;;;;;19.60;54.54;100108.56;5025783;28;20072;-88
2021/08/08 08:55:12;;;;;;;2.88;1.63;;;;;;;19.58;54.40;100114.91;5007849;28;20076;-85
2021/08/08 08:57:43;;;;;;;2.45;1.60;;;;;;;19.56;54.52;100119.47;5013883;28;20045;-85
2021/08/08 09:00:12;;;;;;;6.40;1.80;;;;;;;19.47;54.00;100137.59;5003856;28;20052;-85
2021/08/08 09:02:39;;;;;;;4.15;2.03;;;;;;;19.46;53.28;100125.28;5032380;28;20152;-84
2021/08/08 09:07:49;;;;;;;;;;;;;;;19.81;53.45;100132.22;5040001;28;20064;-87
2021/08/08 09:10:17;;;;;;;4.10;1.63;;;;;;;19.98;53.44;100136.63;5015346;28;19935;-86
2021/08/08 09:12:44;;;;;;;3.85;1.48;;;;;;;20.13;52.78;100138.41;5011772;28;20045;-85
2021/08/08 09:15:12;;;;;;;2.47;1.65;;;;;;;19.94;53.03;100135.09;5033268;28;20051;-85
2021/08/08 09:17:41;;;;;;;1.83;1.50;;;;;;;19.96;52.92;100138.53;5015916;28;20044;-86
2021/08/08 09:20:13;;;;;;;2.08;1.88;;;;;;;19.90;52.42;100136.22;5032284;28;20045;-85
2021/08/08 09:22:41;;;;;;;4.57;1.85;;;;;;;19.74;53.12;100149.47;5028688;28;20049;-86
2021/08/08 09:25:23;;;;;;;3.70;1.58;;;;;;;19.63;53.09;100150.91;5015926;28;21054;-86
2021/08/08 09:27:59;;;;;;;3.28;1.23;;;;;;;19.63;53.05;100150.91;5020867;28;20510;-85
2021/08/08 09:30:26;;;;;;;2.80;1.60;;;;;;;19.65;53.05;100149.00;4998349;28;20053;-84
2021/08/08 09:33:03;;;;;;;4.35;1.95;;;;;;;19.70;53.28;100147.91;5013404;28;20048;-83
2021/08/08 09:35:35;;;;;;;2.42;1.60;;;;;;;19.70;53.45;100147.91;4995284;28;20059;-85
2021/08/08 09:38:07;;;;;;;2.47;1.23;;;;;;;19.72;53.13;100157.50;5026767;28;20061;-86
2021/08/08 09:40:39;;;;;;;4.53;1.23;;;;;;;19.72;52.91;100149.53;5026178;28;20048;-86
2021/08/08 09:43:09;;;;;;;4.35;1.15;;;;;;;19.74;52.75;100165.41;5026947;28;20077;-85
2021/08/08 09:45:45;;;;;;;3.38;1.25;;;;;;;19.69;52.59;100176.25;5013088;28;20249;-85
2021/08/08 09:48:14;;;;;;;4.13;1.45;;;;;;;19.54;52.94;100175.28;5026672;28;20049;-84
2021/08/08 09:50:43;;;;;;;4.05;1.30;;;;;;;19.56;53.07;100172.56;5015717;28;20067;-86
2021/08/08 09:55:57;;;;;;;2.25;1.13;;;;;;;19.54;53.82;100174.44;5029203;28;20064;-85
2021/08/08 09:58:27;;;;;;;3.60;1.10;;;;;;;19.62;53.48;100177.53;5026074;28;20306;-85
2021/08/08 10:01:01;;;;;;;6.72;1.67;;;;;;;19.66;52.79;100174.63;5013893;28;20077;-85
2021/08/08 10:03:29;;;;;;;2.70;1.40;;;;;;;19.67;52.66;100184.31;5014008;28;20063;-84
2021/08/08 10:05:56;;;;;;;1.98;1.52;;;;;;;19.63;52.74;100164.19;5015398;28;20064;-85
2021/08/08 10:08:25;;;;;;;2.95;1.52;;;;;;;19.64;52.84;100170.34;5025232;28;20144;-84
2021/08/08 10:10:57;;;;;;;5.45;1.33;;;;;;;19.71;52.85;100182.34;5000296;28;20835;-85
2021/08/08 10:13:44;;;;;;;3.40;1.92;;;;;;;19.77;53.26;100191.78;5031281;28;20476;-85
2021/08/08 10:16:15;;;;;;;3.90;1.40;;;;;;;19.78;53.39;100188.19;5035226;28;20076;-84
2021/08/08 10:18:55;;;;;;;4.13;1.38;;;;;;;19.91;53.13;100189.25;5010732;28;20562;-86
2021/08/08 10:21:24;;;;;;;2.15;1.33;;;;;;;20.47;52.10;100188.78;5025861;28;20716;-85
2021/08/08 10:23:54;;;;;;;4.82;1.65;;;;;;;20.64;50.56;100182.47;5027898;28;20063;-86
2021/08/08 10:26:23;;;;;;;4.25;1.80;;;;;;;20.41;50.50;100189.97;5024186;28;20508;-85
2021/08/08 10:28:53;;;;;;;2.70;1.20;;;;;;;20.30;50.98;100197.72;5021939;28;20066;-85
2021/08/08 10:31:24;;;;;;;3.47;1.15;;;;;;;20.33;50.78;100195.72;5010192;28;20495;-85
2021/08/08 10:33:59;;;;;;;1.52;1.02;;;;;;;20.57;50.00;100191.75;5006973;28;20049;-85
2021/08/08 10:36:33;;;;;;;4.10;1.00;;;;;;;21.07;48.79;100190.59;4995914;28;20144;-85
2021/08/08 10:39:14;;;;;;;1.77;1.10;;;;;;;21.36;47.91;100182.63;5020466;28;20041;-84
2021/08/08 10:41:56;;;;;;;6.38;2.00;;;;;;;21.71;47.33;100184.94;5027736;28;20045;-85
2021/08/08 10:44:25;;;;;;;1.98;1.05;;;;;;;22.20;46.43;100188.06;5034654;28;20049;-86
2021/08/08 10:46:54;;;;;;;3.83;1.70;;;;;;;23.31;44.43;100190.50;5015246;28;20049;-88
2021/08/08 10:49:32;;;;;;;4.13;1.52;;;;;;;24.34;41.25;100195.63;5036966;28;20049;-85
2021/08/08 10:52:08;;;;;;;1.60;1.02;;;;;;;24.68;40.01;100180.63;5027374;28;20052;-85
2021/08/08 10:54:52;;;;;;;1.90;1.33;;;;;;;23.89;41.86;100186.34;5028512;28;20774;-85
2021/08/08 10:57:21;;;;;;;2.10;1.05;;;;;;;22.55;45.25;100198.25;5027434;28;20118;-86
2021/08/08 10:59:51;;;;;;;2.10;1.30;;;;;;;21.79;47.22;100200.44;5040585;28;20029;-87
2021/08/08 11:02:34;;;;;;;1.90;1.52;;;;;;;21.33;48.36;100201.47;5037145;28;20060;-86
2021/08/08 11:05:16;;;;;;;1.92;1.52;;;;;;;20.81;49.60;100210.78;5022342;28;20059;-85
2021/08/08 11:07:49;;;;;;;3.05;1.65;;;;;;;20.52;50.11;100217.75;5023216;28;20087;-85
2021/08/08 11:10:27;;;;;;;3.20;1.27;;;;;;;20.20;51.11;100215.97;5035168;28;20053;-87
2021/08/08 11:12:55;;;;;;;4.82;1.65;;;;;;;19.91;51.89;100213.16;5035736;28;20060;-85
2021/08/08 11:15:36;;;;;;;2.05;1.30;;;;;;;19.76;52.29;100220.09;5028402;28;20045;-86
2021/08/08 11:18:03;;;;;;;2.25;1.20;;;;;;;19.87;52.11;100211.63;5034203;28;20049;-86
2021/08/08 11:20:34;;;;;;;5.88;1.40;;;;;;;19.92;51.67;100220.19;5012679;28;20404;-85
2021/08/08 11:23:03;;;;;;;2.10;1.13;;;;;;;20.20;51.65;100218.63;5018920;28;20099;-85
2021/08/08 11:25:42;;;;;;;8.07;1.73;;;;;;;20.33;50.65;100230.28;5036101;28;20132;-86
2021/08/08 11:28:11;;;;;;;4.57;1.80;;;;;;;20.40;50.51;100230.81;5027592;28;20131;-85
2021/08/08 11:30:53;;;;;;;4.10;1.58;;;;;;;20.36;50.31;100236.38;5026806;28;20084;-84
2021/08/08 11:33:26;;;;;;;5.90;1.15;;;;;;;20.20;50.94;100241.72;5012820;28;20057;-85
2021/08/08 11:36:01;;;;;;;3.55;1.33;;;;;;;20.15;51.18;100239.31;5017997;28;20053;-86
2021/08/08 11:38:30;;;;;;;2.38;1.00;;;;;;;20.39;50.88;100247.72;5026568;28;20053;-86
2021/08/08 11:40:57;;;;;;;3.95;1.60;;;;;;;20.73;49.82;100248.47;5031271;28;20073;-85
2021/08/08 11:43:33;;;;;;;4.00;1.23;;;;;;;20.73;49.77;100252.91;5010952;28;20506;-85
2021/08/08 11:46:02;;;;;;;3.92;1.67;;;;;;;20.59;50.35;100249.22;5025480;28;20041;-85